sensor_id;sensor_type;location;lat;lon;timestamp;P1;durP1;ratioP1;P2;durP2;ratioP2
55312;SDS011;46892;45.668;11.756;2023-04-21T00:01:24;7.07;;;4.47;;
55312;SDS011;46892;45.668;11.756;2023-04-21T00:03:51;6.57;;;3.70;;
55312;SDS011;46892;45.668;11.756;2023-04-21T00:06:17;4.67;;;3.53;;
55312;SDS011;46892;45.668;11.756;2023-04-21T00:08:46;4.40;;;3.43;;
55312;SDS011;46892;45.668;11.756;2023-04-21T00:11:12;4.60;;;3.40;;
55312;SDS011;46892;45.668;11.756;2023-04-21T00:13:39;5.50;;;3.93;;
55312;SDS011;46892;45.668;11.756;2023-04-21T00:16:05;4.67;;;3.40;;
55312;SDS011;46892;45.668;11.756;2023-04-21T00:18:31;6.37;;;3.60;;
55312;SDS011;46892;45.668;11.756;2023-04-21T00:20:56;4.23;;;2.80;;
55312;SDS011;46892;45.668;11.756;2023-04-21T00:23:22;3.40;;;2.87;;
55312;SDS011;46892;45.668;11.756;2023-04-21T00:25:48;3.97;;;3.13;;
55312;SDS011;46892;45.668;11.756;2023-04-21T00:28:13;6.23;;;3.40;;
55312;SDS011;46892;45.668;11.756;2023-04-21T00:30:39;5.47;;;3.67;;
55312;SDS011;46892;45.668;11.756;2023-04-21T00:33:05;5.93;;;3.70;;
55312;SDS011;46892;45.668;11.756;2023-04-21T00:35:31;5.17;;;3.50;;
55312;SDS011;46892;45.668;11.756;2023-04-21T00:37:56;4.83;;;3.27;;
55312;SDS011;46892;45.668;11.756;2023-04-21T00:40:22;4.77;;;3.10;;
55312;SDS011;46892;45.668;11.756;2023-04-21T00:42:48;4.80;;;3.30;;
55312;SDS011;46892;45.668;11.756;2023-04-21T00:45:13;5.10;;;3.43;;
55312;SDS011;46892;45.668;11.756;2023-04-21T00:47:39;3.83;;;3.13;;
55312;SDS011;46892;45.668;11.756;2023-04-21T00:50:06;4.30;;;2.90;;
55312;SDS011;46892;45.668;11.756;2023-04-21T00:52:32;3.80;;;2.93;;
55312;SDS011;46892;45.668;11.756;2023-04-21T00:54:59;4.67;;;3.17;;
55312;SDS011;46892;45.668;11.756;2023-04-21T00:57:26;4.93;;;2.93;;
55312;SDS011;46892;45.668;11.756;2023-04-21T00:59:53;3.57;;;2.80;;
55312;SDS011;46892;45.668;11.756;2023-04-21T01:02:19;4.33;;;2.93;;
55312;SDS011;46892;45.668;11.756;2023-04-21T01:04:45;3.27;;;2.50;;
55312;SDS011;46892;45.668;11.756;2023-04-21T01:07:11;4.70;;;3.00;;
55312;SDS011;46892;45.668;11.756;2023-04-21T01:09:37;4.27;;;2.80;;
55312;SDS011;46892;45.668;11.756;2023-04-21T01:12:03;6.83;;;3.33;;
55312;SDS011;46892;45.668;11.756;2023-04-21T01:14:34;4.37;;;2.83;;
55312;SDS011;46892;45.668;11.756;2023-04-21T01:17:01;4.50;;;3.03;;
55312;SDS011;46892;45.668;11.756;2023-04-21T01:19:31;5.20;;;3.00;;
55312;SDS011;46892;45.668;11.756;2023-04-21T01:22:01;4.43;;;3.20;;
55312;SDS011;46892;45.668;11.756;2023-04-21T01:24:35;5.27;;;3.27;;
55312;SDS011;46892;45.668;11.756;2023-04-21T01:27:01;4.17;;;2.93;;
55312;SDS011;46892;45.668;11.756;2023-04-21T01:29:26;4.10;;;3.27;;
55312;SDS011;46892;45.668;11.756;2023-04-21T01:31:52;4.83;;;3.10;;
55312;SDS011;46892;45.668;11.756;2023-04-21T01:34:18;4.73;;;3.20;;
55312;SDS011;46892;45.668;11.756;2023-04-21T01:36:43;4.23;;;3.20;;
55312;SDS011;46892;45.668;11.756;2023-04-21T01:39:09;5.07;;;3.40;;
55312;SDS011;46892;45.668;11.756;2023-04-21T01:41:34;4.97;;;3.10;;
55312;SDS011;46892;45.668;11.756;2023-04-21T01:44:00;3.80;;;2.70;;
55312;SDS011;46892;45.668;11.756;2023-04-21T01:46:26;3.83;;;2.80;;
55312;SDS011;46892;45.668;11.756;2023-04-21T01:48:51;4.07;;;2.80;;
55312;SDS011;46892;45.668;11.756;2023-04-21T01:51:17;5.13;;;2.70;;
55312;SDS011;46892;45.668;11.756;2023-04-21T01:53:43;4.67;;;2.43;;
55312;SDS011;46892;45.668;11.756;2023-04-21T01:56:11;4.10;;;2.60;;
55312;SDS011;46892;45.668;11.756;2023-04-21T01:58:38;3.92;;;2.47;;
55312;SDS011;46892;45.668;11.756;2023-04-21T02:01:04;3.43;;;2.57;;
55312;SDS011;46892;45.668;11.756;2023-04-21T02:03:29;3.27;;;2.30;;
55312;SDS011;46892;45.668;11.756;2023-04-21T02:05:55;3.23;;;2.50;;
55312;SDS011;46892;45.668;11.756;2023-04-21T02:08:21;3.23;;;2.43;;
55312;SDS011;46892;45.668;11.756;2023-04-21T02:10:46;4.63;;;2.70;;
55312;SDS011;46892;45.668;11.756;2023-04-21T02:13:13;4.40;;;2.73;;
55312;SDS011;46892;45.668;11.756;2023-04-21T02:15:38;4.67;;;3.30;;
55312;SDS011;46892;45.668;11.756;2023-04-21T02:18:04;4.73;;;3.20;;
55312;SDS011;46892;45.668;11.756;2023-04-21T02:20:30;4.13;;;3.07;;
55312;SDS011;46892;45.668;11.756;2023-04-21T02:22:56;4.47;;;3.10;;
55312;SDS011;46892;45.668;11.756;2023-04-21T02:25:22;4.47;;;3.00;;
55312;SDS011;46892;45.668;11.756;2023-04-21T02:27:47;5.37;;;3.20;;
55312;SDS011;46892;45.668;11.756;2023-04-21T02:30:13;4.50;;;2.80;;
55312;SDS011;46892;45.668;11.756;2023-04-21T02:32:39;4.70;;;2.93;;
55312;SDS011;46892;45.668;11.756;2023-04-21T02:35:04;5.03;;;3.30;;
55312;SDS011;46892;45.668;11.756;2023-04-21T02:37:30;7.03;;;3.23;;
55312;SDS011;46892;45.668;11.756;2023-04-21T02:39:56;5.47;;;3.70;;
55312;SDS011;46892;45.668;11.756;2023-04-21T02:42:22;7.10;;;3.30;;
55312;SDS011;46892;45.668;11.756;2023-04-21T02:44:47;6.23;;;3.40;;
55312;SDS011;46892;45.668;11.756;2023-04-21T02:47:14;5.30;;;3.43;;
55312;SDS011;46892;45.668;11.756;2023-04-21T02:49:40;3.73;;;2.47;;
55312;SDS011;46892;45.668;11.756;2023-04-21T02:52:07;4.63;;;2.70;;
55312;SDS011;46892;45.668;11.756;2023-04-21T02:54:33;2.60;;;1.97;;
55312;SDS011;46892;45.668;11.756;2023-04-21T02:56:58;2.70;;;2.00;;
55312;SDS011;46892;45.668;11.756;2023-04-21T02:59:24;2.53;;;1.70;;
55312;SDS011;46892;45.668;11.756;2023-04-21T03:01:49;2.53;;;1.80;;
55312;SDS011;46892;45.668;11.756;2023-04-21T03:04:15;8.13;;;1.60;;
55312;SDS011;46892;45.668;11.756;2023-04-21T03:06:41;3.93;;;1.40;;
55312;SDS011;46892;45.668;11.756;2023-04-21T03:09:06;1.93;;;1.37;;
55312;SDS011;46892;45.668;11.756;2023-04-21T03:11:33;2.73;;;1.47;;
55312;SDS011;46892;45.668;11.756;2023-04-21T03:13:58;2.10;;;1.27;;
55312;SDS011;46892;45.668;11.756;2023-04-21T03:16:24;3.63;;;1.90;;
55312;SDS011;46892;45.668;11.756;2023-04-21T03:18:50;4.67;;;1.20;;
55312;SDS011;46892;45.668;11.756;2023-04-21T03:21:15;2.27;;;1.30;;
55312;SDS011;46892;45.668;11.756;2023-04-21T03:23:41;2.13;;;1.30;;
55312;SDS011;46892;45.668;11.756;2023-04-21T03:26:07;2.20;;;1.20;;
55312;SDS011;46892;45.668;11.756;2023-04-21T03:28:33;1.60;;;1.00;;
55312;SDS011;46892;45.668;11.756;2023-04-21T03:30:59;2.17;;;1.50;;
55312;SDS011;46892;45.668;11.756;2023-04-21T03:33:24;1.57;;;1.20;;
55312;SDS011;46892;45.668;11.756;2023-04-21T03:35:50;2.50;;;1.50;;
55312;SDS011;46892;45.668;11.756;2023-04-21T03:38:15;2.10;;;1.43;;
55312;SDS011;46892;45.668;11.756;2023-04-21T03:40:41;2.37;;;1.40;;
55312;SDS011;46892;45.668;11.756;2023-04-21T03:43:07;2.00;;;1.27;;
55312;SDS011;46892;45.668;11.756;2023-04-21T03:45:35;2.40;;;1.70;;
55312;SDS011;46892;45.668;11.756;2023-04-21T03:48:01;2.53;;;1.30;;
55312;SDS011;46892;45.668;11.756;2023-04-21T03:50:27;2.37;;;1.60;;
55312;SDS011;46892;45.668;11.756;2023-04-21T03:52:53;2.50;;;1.33;;
55312;SDS011;46892;45.668;11.756;2023-04-21T03:55:19;2.10;;;1.40;;
55312;SDS011;46892;45.668;11.756;2023-04-21T03:57:45;1.43;;;1.30;;
55312;SDS011;46892;45.668;11.756;2023-04-21T04:00:11;2.17;;;1.40;;
55312;SDS011;46892;45.668;11.756;2023-04-21T04:02:37;2.90;;;1.67;;
55312;SDS011;46892;45.668;11.756;2023-04-21T04:05:03;2.40;;;1.50;;
55312;SDS011;46892;45.668;11.756;2023-04-21T04:07:30;1.50;;;1.30;;
55312;SDS011;46892;45.668;11.756;2023-04-21T04:09:56;1.70;;;1.30;;
55312;SDS011;46892;45.668;11.756;2023-04-21T04:12:22;2.57;;;1.40;;
55312;SDS011;46892;45.668;11.756;2023-04-21T04:14:47;1.53;;;1.10;;
55312;SDS011;46892;45.668;11.756;2023-04-21T04:17:13;2.40;;;1.60;;
55312;SDS011;46892;45.668;11.756;2023-04-21T04:19:39;1.93;;;1.10;;
55312;SDS011;46892;45.668;11.756;2023-04-21T04:22:04;1.77;;;1.30;;
55312;SDS011;46892;45.668;11.756;2023-04-21T04:24:31;2.10;;;1.40;;
55312;SDS011;46892;45.668;11.756;2023-04-21T04:26:57;1.93;;;1.50;;
55312;SDS011;46892;45.668;11.756;2023-04-21T04:29:24;2.43;;;1.30;;
55312;SDS011;46892;45.668;11.756;2023-04-21T04:31:51;3.07;;;1.90;;
55312;SDS011;46892;45.668;11.756;2023-04-21T04:34:17;3.37;;;1.80;;
55312;SDS011;46892;45.668;11.756;2023-04-21T04:36:43;3.17;;;1.90;;
55312;SDS011;46892;45.668;11.756;2023-04-21T04:39:09;4.20;;;2.20;;
55312;SDS011;46892;45.668;11.756;2023-04-21T04:41:36;5.90;;;3.80;;
55312;SDS011;46892;45.668;11.756;2023-04-21T04:44:02;9.67;;;7.27;;
55312;SDS011;46892;45.668;11.756;2023-04-21T04:46:29;5.33;;;3.50;;
55312;SDS011;46892;45.668;11.756;2023-04-21T04:48:55;2.77;;;1.70;;
55312;SDS011;46892;45.668;11.756;2023-04-21T04:51:21;1.67;;;1.37;;
55312;SDS011;46892;45.668;11.756;2023-04-21T04:53:49;1.57;;;1.10;;
55312;SDS011;46892;45.668;11.756;2023-04-21T04:56:15;2.47;;;1.20;;
55312;SDS011;46892;45.668;11.756;2023-04-21T04:58:40;1.93;;;1.37;;
55312;SDS011;46892;45.668;11.756;2023-04-21T05:01:10;2.00;;;1.20;;
55312;SDS011;46892;45.668;11.756;2023-04-21T05:03:39;2.10;;;1.40;;
55312;SDS011;46892;45.668;11.756;2023-04-21T05:06:05;2.87;;;1.37;;
55312;SDS011;46892;45.668;11.756;2023-04-21T05:08:31;1.63;;;1.27;;
55312;SDS011;46892;45.668;11.756;2023-04-21T05:10:57;3.73;;;1.53;;
55312;SDS011;46892;45.668;11.756;2023-04-21T05:13:23;2.37;;;1.60;;
55312;SDS011;46892;45.668;11.756;2023-04-21T05:15:48;1.87;;;1.53;;
55312;SDS011;46892;45.668;11.756;2023-04-21T05:18:14;2.63;;;1.83;;
55312;SDS011;46892;45.668;11.756;2023-04-21T05:20:40;2.20;;;1.70;;
55312;SDS011;46892;45.668;11.756;2023-04-21T05:23:06;1.73;;;1.33;;
55312;SDS011;46892;45.668;11.756;2023-04-21T05:25:32;2.67;;;1.50;;
55312;SDS011;46892;45.668;11.756;2023-04-21T05:27:58;1.67;;;1.30;;
55312;SDS011;46892;45.668;11.756;2023-04-21T05:30:23;2.97;;;1.50;;
55312;SDS011;46892;45.668;11.756;2023-04-21T05:32:49;5.37;;;3.63;;
55312;SDS011;46892;45.668;11.756;2023-04-21T05:35:15;6.77;;;3.03;;
55312;SDS011;46892;45.668;11.756;2023-04-21T05:37:41;3.00;;;1.97;;
55312;SDS011;46892;45.668;11.756;2023-04-21T05:40:07;2.70;;;1.83;;
55312;SDS011;46892;45.668;11.756;2023-04-21T05:42:32;3.87;;;1.90;;
55312;SDS011;46892;45.668;11.756;2023-04-21T05:44:58;4.60;;;2.60;;
55312;SDS011;46892;45.668;11.756;2023-04-21T05:47:24;7.20;;;4.33;;
55312;SDS011;46892;45.668;11.756;2023-04-21T05:49:53;7.57;;;5.00;;
55312;SDS011;46892;45.668;11.756;2023-04-21T05:52:19;10.20;;;7.10;;
55312;SDS011;46892;45.668;11.756;2023-04-21T05:54:45;9.23;;;6.23;;
55312;SDS011;46892;45.668;11.756;2023-04-21T05:57:11;4.63;;;2.40;;
55312;SDS011;46892;45.668;11.756;2023-04-21T05:59:37;3.00;;;1.80;;
55312;SDS011;46892;45.668;11.756;2023-04-21T06:02:03;2.00;;;1.40;;
55312;SDS011;46892;45.668;11.756;2023-04-21T06:04:29;3.30;;;2.00;;
55312;SDS011;46892;45.668;11.756;2023-04-21T06:06:54;4.30;;;1.90;;
55312;SDS011;46892;45.668;11.756;2023-04-21T06:09:20;2.77;;;1.80;;
55312;SDS011;46892;45.668;11.756;2023-04-21T06:11:46;2.40;;;1.90;;
55312;SDS011;46892;45.668;11.756;2023-04-21T06:14:12;2.33;;;1.80;;
55312;SDS011;46892;45.668;11.756;2023-04-21T06:16:37;2.97;;;1.80;;
55312;SDS011;46892;45.668;11.756;2023-04-21T06:19:03;2.80;;;2.03;;
55312;SDS011;46892;45.668;11.756;2023-04-21T06:21:28;4.03;;;2.10;;
55312;SDS011;46892;45.668;11.756;2023-04-21T06:23:54;4.93;;;2.67;;
55312;SDS011;46892;45.668;11.756;2023-04-21T06:26:20;4.03;;;1.90;;
55312;SDS011;46892;45.668;11.756;2023-04-21T06:28:46;2.50;;;1.70;;
55312;SDS011;46892;45.668;11.756;2023-04-21T06:31:12;2.67;;;1.73;;
55312;SDS011;46892;45.668;11.756;2023-04-21T06:33:40;4.27;;;1.57;;
55312;SDS011;46892;45.668;11.756;2023-04-21T06:36:06;4.07;;;1.50;;
55312;SDS011;46892;45.668;11.756;2023-04-21T06:38:32;3.40;;;1.60;;
55312;SDS011;46892;45.668;11.756;2023-04-21T06:40:58;3.60;;;1.77;;
55312;SDS011;46892;45.668;11.756;2023-04-21T06:43:23;2.60;;;1.70;;
55312;SDS011;46892;45.668;11.756;2023-04-21T06:45:49;3.87;;;1.77;;
55312;SDS011;46892;45.668;11.756;2023-04-21T06:48:15;4.13;;;1.80;;
55312;SDS011;46892;45.668;11.756;2023-04-21T06:50:41;3.00;;;1.57;;
55312;SDS011;46892;45.668;11.756;2023-04-21T06:53:09;3.83;;;1.80;;
55312;SDS011;46892;45.668;11.756;2023-04-21T06:55:35;4.87;;;1.80;;
55312;SDS011;46892;45.668;11.756;2023-04-21T06:58:01;2.47;;;1.50;;
55312;SDS011;46892;45.668;11.756;2023-04-21T07:00:27;3.17;;;1.93;;
55312;SDS011;46892;45.668;11.756;2023-04-21T07:02:53;3.80;;;1.87;;
55312;SDS011;46892;45.668;11.756;2023-04-21T07:05:19;4.47;;;1.97;;
55312;SDS011;46892;45.668;11.756;2023-04-21T07:07:45;3.13;;;2.00;;
55312;SDS011;46892;45.668;11.756;2023-04-21T07:10:10;2.17;;;1.50;;
55312;SDS011;46892;45.668;11.756;2023-04-21T07:12:36;3.23;;;1.60;;
55312;SDS011;46892;45.668;11.756;2023-04-21T07:15:02;3.50;;;1.83;;
55312;SDS011;46892;45.668;11.756;2023-04-21T07:17:28;2.77;;;1.60;;
55312;SDS011;46892;45.668;11.756;2023-04-21T07:19:54;1.73;;;1.50;;
55312;SDS011;46892;45.668;11.756;2023-04-21T07:22:19;2.70;;;1.57;;
55312;SDS011;46892;45.668;11.756;2023-04-21T07:24:45;3.23;;;1.63;;
55312;SDS011;46892;45.668;11.756;2023-04-21T07:27:11;2.30;;;1.40;;
55312;SDS011;46892;45.668;11.756;2023-04-21T07:29:36;2.30;;;1.40;;
55312;SDS011;46892;45.668;11.756;2023-04-21T07:32:02;4.20;;;1.70;;
55312;SDS011;46892;45.668;11.756;2023-04-21T07:34:28;4.43;;;1.80;;
55312;SDS011;46892;45.668;11.756;2023-04-21T07:36:56;2.20;;;1.60;;
55312;SDS011;46892;45.668;11.756;2023-04-21T07:39:21;3.53;;;1.27;;
55312;SDS011;46892;45.668;11.756;2023-04-21T07:41:47;3.67;;;1.83;;
55312;SDS011;46892;45.668;11.756;2023-04-21T07:44:13;2.33;;;1.63;;
55312;SDS011;46892;45.668;11.756;2023-04-21T07:46:38;3.03;;;1.70;;
55312;SDS011;46892;45.668;11.756;2023-04-21T07:49:04;2.73;;;1.93;;
55312;SDS011;46892;45.668;11.756;2023-04-21T07:51:30;2.07;;;1.70;;
55312;SDS011;46892;45.668;11.756;2023-04-21T07:53:56;2.63;;;1.83;;
55312;SDS011;46892;45.668;11.756;2023-04-21T07:56:22;3.13;;;2.10;;
55312;SDS011;46892;45.668;11.756;2023-04-21T07:58:47;3.03;;;2.00;;
55312;SDS011;46892;45.668;11.756;2023-04-21T08:01:13;3.83;;;2.13;;
55312;SDS011;46892;45.668;11.756;2023-04-21T08:03:39;2.93;;;1.93;;
55312;SDS011;46892;45.668;11.756;2023-04-21T08:06:05;4.60;;;2.00;;
55312;SDS011;46892;45.668;11.756;2023-04-21T08:08:31;3.07;;;1.70;;
55312;SDS011;46892;45.668;11.756;2023-04-21T08:10:56;3.00;;;1.90;;
55312;SDS011;46892;45.668;11.756;2023-04-21T08:13:22;4.30;;;2.00;;
55312;SDS011;46892;45.668;11.756;2023-04-21T08:15:52;4.20;;;2.57;;
55312;SDS011;46892;45.668;11.756;2023-04-21T08:18:18;4.00;;;2.90;;
55312;SDS011;46892;45.668;11.756;2023-04-21T08:20:45;4.73;;;3.60;;
55312;SDS011;46892;45.668;11.756;2023-04-21T08:23:14;5.57;;;3.07;;
55312;SDS011;46892;45.668;11.756;2023-04-21T08:25:40;6.10;;;3.13;;
55312;SDS011;46892;45.668;11.756;2023-04-21T08:28:06;4.67;;;3.20;;
55312;SDS011;46892;45.668;11.756;2023-04-21T08:30:32;4.43;;;3.30;;
55312;SDS011;46892;45.668;11.756;2023-04-21T08:32:57;5.07;;;3.33;;
55312;SDS011;46892;45.668;11.756;2023-04-21T08:35:23;5.93;;;3.50;;
55312;SDS011;46892;45.668;11.756;2023-04-21T08:37:49;5.53;;;3.13;;
55312;SDS011;46892;45.668;11.756;2023-04-21T08:40:15;4.97;;;3.13;;
55312;SDS011;46892;45.668;11.756;2023-04-21T08:42:42;5.10;;;3.37;;
55312;SDS011;46892;45.668;11.756;2023-04-21T08:45:07;4.37;;;3.30;;
55312;SDS011;46892;45.668;11.756;2023-04-21T08:47:34;4.43;;;3.40;;
55312;SDS011;46892;45.668;11.756;2023-04-21T08:50:02;4.80;;;3.33;;
55312;SDS011;46892;45.668;11.756;2023-04-21T08:52:28;4.67;;;3.27;;
55312;SDS011;46892;45.668;11.756;2023-04-21T08:54:54;4.93;;;3.63;;
55312;SDS011;46892;45.668;11.756;2023-04-21T08:57:20;4.13;;;3.23;;
55312;SDS011;46892;45.668;11.756;2023-04-21T08:59:46;13.03;;;10.00;;
55312;SDS011;46892;45.668;11.756;2023-04-21T09:02:13;10.00;;;6.43;;
55312;SDS011;46892;45.668;11.756;2023-04-21T09:04:43;10.40;;;8.13;;
55312;SDS011;46892;45.668;11.756;2023-04-21T09:07:10;5.57;;;3.43;;
55312;SDS011;46892;45.668;11.756;2023-04-21T09:09:53;5.47;;;3.83;;
55312;SDS011;46892;45.668;11.756;2023-04-21T09:12:20;8.67;;;5.17;;
55312;SDS011;46892;45.668;11.756;2023-04-21T09:14:46;6.27;;;4.20;;
55312;SDS011;46892;45.668;11.756;2023-04-21T09:17:14;4.43;;;3.33;;
55312;SDS011;46892;45.668;11.756;2023-04-21T09:19:40;5.20;;;3.03;;
55312;SDS011;46892;45.668;11.756;2023-04-21T09:22:06;11.53;;;7.93;;
55312;SDS011;46892;45.668;11.756;2023-04-21T09:24:32;4.70;;;3.73;;
55312;SDS011;46892;45.668;11.756;2023-04-21T09:26:58;6.20;;;3.40;;
55312;SDS011;46892;45.668;11.756;2023-04-21T09:29:28;4.55;;;3.30;;
55312;SDS011;46892;45.668;11.756;2023-04-21T09:31:53;4.80;;;3.47;;
55312;SDS011;46892;45.668;11.756;2023-04-21T09:34:23;6.23;;;3.40;;
55312;SDS011;46892;45.668;11.756;2023-04-21T09:37:00;5.47;;;3.43;;
55312;SDS011;46892;45.668;11.756;2023-04-21T09:39:33;7.33;;;4.57;;
55312;SDS011;46892;45.668;11.756;2023-04-21T09:41:58;5.03;;;3.57;;
55312;SDS011;46892;45.668;11.756;2023-04-21T09:44:25;6.90;;;3.93;;
55312;SDS011;46892;45.668;11.756;2023-04-21T09:46:57;5.93;;;4.37;;
55312;SDS011;46892;45.668;11.756;2023-04-21T09:49:30;3.23;;;2.30;;
55312;SDS011;46892;45.668;11.756;2023-04-21T09:52:00;3.70;;;2.63;;
55312;SDS011;46892;45.668;11.756;2023-04-21T09:54:32;3.50;;;2.10;;
55312;SDS011;46892;45.668;11.756;2023-04-21T09:57:01;4.33;;;2.23;;
55312;SDS011;46892;45.668;11.756;2023-04-21T09:59:33;3.60;;;2.10;;
55312;SDS011;46892;45.668;11.756;2023-04-21T10:02:00;2.83;;;2.20;;
55312;SDS011;46892;45.668;11.756;2023-04-21T10:04:29;3.00;;;1.90;;
55312;SDS011;46892;45.668;11.756;2023-04-21T10:06:57;3.67;;;2.13;;
55312;SDS011;46892;45.668;11.756;2023-04-21T10:09:28;2.87;;;2.07;;
55312;SDS011;46892;45.668;11.756;2023-04-21T10:12:07;4.17;;;2.43;;
55312;SDS011;46892;45.668;11.756;2023-04-21T10:14:33;3.43;;;2.17;;
55312;SDS011;46892;45.668;11.756;2023-04-21T10:17:03;5.87;;;2.53;;
55312;SDS011;46892;45.668;11.756;2023-04-21T10:19:30;3.60;;;2.10;;
55312;SDS011;46892;45.668;11.756;2023-04-21T10:22:03;2.80;;;2.10;;
55312;SDS011;46892;45.668;11.756;2023-04-21T10:24:31;2.87;;;2.10;;
55312;SDS011;46892;45.668;11.756;2023-04-21T10:27:02;3.53;;;2.17;;
55312;SDS011;46892;45.668;11.756;2023-04-21T10:29:28;3.20;;;1.93;;
55312;SDS011;46892;45.668;11.756;2023-04-21T10:31:54;2.50;;;1.93;;
55312;SDS011;46892;45.668;11.756;2023-04-21T10:34:41;3.40;;;2.03;;
55312;SDS011;46892;45.668;11.756;2023-04-21T10:37:07;2.30;;;1.80;;
55312;SDS011;46892;45.668;11.756;2023-04-21T10:39:37;4.57;;;2.08;;
55312;SDS011;46892;45.668;11.756;2023-04-21T10:45:22;2.70;;;2.10;;
55312;SDS011;46892;45.668;11.756;2023-04-21T10:47:23;2.90;;;2.10;;
55312;SDS011;46892;45.668;11.756;2023-04-21T10:49:54;4.13;;;2.40;;
55312;SDS011;46892;45.668;11.756;2023-04-21T10:52:21;3.47;;;2.27;;
55312;SDS011;46892;45.668;11.756;2023-04-21T10:57:23;2.60;;;1.83;;
55312;SDS011;46892;45.668;11.756;2023-04-21T10:59:49;3.07;;;2.30;;
55312;SDS011;46892;45.668;11.756;2023-04-21T11:02:16;2.83;;;1.87;;
55312;SDS011;46892;45.668;11.756;2023-04-21T11:04:43;5.43;;;2.23;;
55312;SDS011;46892;45.668;11.756;2023-04-21T11:07:15;3.37;;;2.40;;
55312;SDS011;46892;45.668;11.756;2023-04-21T11:09:42;3.92;;;2.20;;
55312;SDS011;46892;45.668;11.756;2023-04-21T11:12:12;3.63;;;2.37;;
55312;SDS011;46892;45.668;11.756;2023-04-21T11:14:40;2.73;;;2.00;;
55312;SDS011;46892;45.668;11.756;2023-04-21T11:17:11;3.53;;;2.60;;
55312;SDS011;46892;45.668;11.756;2023-04-21T11:19:38;3.70;;;2.70;;
55312;SDS011;46892;45.668;11.756;2023-04-21T11:22:04;3.53;;;2.50;;
55312;SDS011;46892;45.668;11.756;2023-04-21T11:24:30;4.80;;;2.97;;
55312;SDS011;46892;45.668;11.756;2023-04-21T11:26:56;3.83;;;2.17;;
55312;SDS011;46892;45.668;11.756;2023-04-21T11:29:22;4.47;;;2.63;;
55312;SDS011;46892;45.668;11.756;2023-04-21T11:31:48;3.70;;;2.70;;
55312;SDS011;46892;45.668;11.756;2023-04-21T11:34:15;3.77;;;2.43;;
55312;SDS011;46892;45.668;11.756;2023-04-21T11:36:44;3.13;;;2.27;;
55312;SDS011;46892;45.668;11.756;2023-04-21T11:39:15;3.27;;;2.57;;
55312;SDS011;46892;45.668;11.756;2023-04-21T11:41:44;8.73;;;3.77;;
55312;SDS011;46892;45.668;11.756;2023-04-21T11:44:12;4.93;;;2.70;;
55312;SDS011;46892;45.668;11.756;2023-04-21T11:46:45;2.93;;;2.33;;
55312;SDS011;46892;45.668;11.756;2023-04-21T11:49:11;4.07;;;2.80;;
55312;SDS011;46892;45.668;11.756;2023-04-21T11:51:38;4.10;;;2.60;;
55312;SDS011;46892;45.668;11.756;2023-04-21T11:54:06;4.27;;;2.70;;
55312;SDS011;46892;45.668;11.756;2023-04-21T11:56:37;3.50;;;2.50;;
55312;SDS011;46892;45.668;11.756;2023-04-21T12:01:33;5.37;;;2.93;;
55312;SDS011;46892;45.668;11.756;2023-04-21T12:04:01;4.43;;;2.63;;
55312;SDS011;46892;45.668;11.756;2023-04-21T12:06:27;5.10;;;3.03;;
55312;SDS011;46892;45.668;11.756;2023-04-21T12:08:59;4.87;;;2.80;;
55312;SDS011;46892;45.668;11.756;2023-04-21T12:11:27;4.10;;;2.80;;
55312;SDS011;46892;45.668;11.756;2023-04-21T12:13:56;3.27;;;2.00;;
55312;SDS011;46892;45.668;11.756;2023-04-21T12:16:28;3.60;;;2.57;;
55312;SDS011;46892;45.668;11.756;2023-04-21T12:18:55;5.80;;;2.33;;
55312;SDS011;46892;45.668;11.756;2023-04-21T12:21:25;3.63;;;2.30;;
55312;SDS011;46892;45.668;11.756;2023-04-21T12:23:54;2.83;;;2.23;;
55312;SDS011;46892;45.668;11.756;2023-04-21T12:26:20;3.00;;;2.47;;
55312;SDS011;46892;45.668;11.756;2023-04-21T12:28:47;3.23;;;2.30;;
55312;SDS011;46892;45.668;11.756;2023-04-21T12:31:14;3.90;;;2.60;;
55312;SDS011;46892;45.668;11.756;2023-04-21T12:33:40;3.20;;;2.27;;
55312;SDS011;46892;45.668;11.756;2023-04-21T12:36:05;4.93;;;2.60;;
55312;SDS011;46892;45.668;11.756;2023-04-21T12:38:31;4.37;;;3.03;;
55312;SDS011;46892;45.668;11.756;2023-04-21T12:40:57;4.00;;;2.43;;
55312;SDS011;46892;45.668;11.756;2023-04-21T12:43:23;4.17;;;2.50;;
55312;SDS011;46892;45.668;11.756;2023-04-21T12:45:48;4.00;;;2.83;;
55312;SDS011;46892;45.668;11.756;2023-04-21T12:48:16;3.87;;;2.57;;
55312;SDS011;46892;45.668;11.756;2023-04-21T12:50:43;3.53;;;2.57;;
55312;SDS011;46892;45.668;11.756;2023-04-21T12:53:09;4.80;;;2.70;;
55312;SDS011;46892;45.668;11.756;2023-04-21T12:55:35;5.37;;;3.00;;
55312;SDS011;46892;45.668;11.756;2023-04-21T12:58:01;3.87;;;2.60;;
55312;SDS011;46892;45.668;11.756;2023-04-21T13:00:26;4.50;;;3.20;;
55312;SDS011;46892;45.668;11.756;2023-04-21T13:02:52;3.30;;;2.47;;
55312;SDS011;46892;45.668;11.756;2023-04-21T13:05:18;3.37;;;2.53;;
55312;SDS011;46892;45.668;11.756;2023-04-21T13:07:44;5.17;;;2.77;;
55312;SDS011;46892;45.668;11.756;2023-04-21T13:10:10;5.23;;;2.80;;
55312;SDS011;46892;45.668;11.756;2023-04-21T13:12:35;4.00;;;2.60;;
55312;SDS011;46892;45.668;11.756;2023-04-21T13:15:02;2.97;;;2.27;;
55312;SDS011;46892;45.668;11.756;2023-04-21T13:17:28;4.30;;;2.60;;
55312;SDS011;46892;45.668;11.756;2023-04-21T13:19:54;4.70;;;2.20;;
55312;SDS011;46892;45.668;11.756;2023-04-21T13:22:19;4.37;;;2.43;;
55312;SDS011;46892;45.668;11.756;2023-04-21T13:24:46;3.00;;;2.40;;
55312;SDS011;46892;45.668;11.756;2023-04-21T13:27:12;3.90;;;2.80;;
55312;SDS011;46892;45.668;11.756;2023-04-21T13:29:38;4.00;;;2.63;;
55312;SDS011;46892;45.668;11.756;2023-04-21T13:32:04;3.77;;;2.57;;
55312;SDS011;46892;45.668;11.756;2023-04-21T13:34:31;4.30;;;2.60;;
55312;SDS011;46892;45.668;11.756;2023-04-21T13:36:58;4.00;;;2.63;;
55312;SDS011;46892;45.668;11.756;2023-04-21T13:39:27;3.43;;;2.43;;
55312;SDS011;46892;45.668;11.756;2023-04-21T13:41:52;3.40;;;2.50;;
55312;SDS011;46892;45.668;11.756;2023-04-21T13:44:19;3.77;;;2.70;;
55312;SDS011;46892;45.668;11.756;2023-04-21T13:46:48;2.78;;;2.35;;
55312;SDS011;46892;45.668;11.756;2023-04-21T13:49:16;4.33;;;2.93;;
55312;SDS011;46892;45.668;11.756;2023-04-21T13:51:41;5.00;;;2.50;;
55312;SDS011;46892;45.668;11.756;2023-04-21T13:54:07;3.33;;;2.47;;
55312;SDS011;46892;45.668;11.756;2023-04-21T13:56:32;3.80;;;2.53;;
55312;SDS011;46892;45.668;11.756;2023-04-21T13:58:58;4.07;;;2.60;;
55312;SDS011;46892;45.668;11.756;2023-04-21T14:01:24;4.40;;;2.27;;
55312;SDS011;46892;45.668;11.756;2023-04-21T14:03:49;3.93;;;2.70;;
55312;SDS011;46892;45.668;11.756;2023-04-21T14:06:15;3.20;;;2.20;;
55312;SDS011;46892;45.668;11.756;2023-04-21T14:08:41;3.30;;;2.40;;
55312;SDS011;46892;45.668;11.756;2023-04-21T14:11:07;5.10;;;2.50;;
55312;SDS011;46892;45.668;11.756;2023-04-21T14:13:32;4.20;;;2.60;;
55312;SDS011;46892;45.668;11.756;2023-04-21T14:15:58;3.47;;;2.60;;
55312;SDS011;46892;45.668;11.756;2023-04-21T14:18:24;3.90;;;2.47;;
55312;SDS011;46892;45.668;11.756;2023-04-21T14:20:49;4.27;;;2.40;;
55312;SDS011;46892;45.668;11.756;2023-04-21T14:23:15;3.57;;;2.37;;
55312;SDS011;46892;45.668;11.756;2023-04-21T14:25:41;2.93;;;1.93;;
55312;SDS011;46892;45.668;11.756;2023-04-21T14:28:06;3.13;;;2.33;;
55312;SDS011;46892;45.668;11.756;2023-04-21T14:30:35;2.77;;;1.90;;
55312;SDS011;46892;45.668;11.756;2023-04-21T14:33:01;3.77;;;2.23;;
55312;SDS011;46892;45.668;11.756;2023-04-21T14:35:28;3.17;;;2.17;;
55312;SDS011;46892;45.668;11.756;2023-04-21T14:37:54;3.00;;;2.23;;